Meyersville, Texas
Current Conditions -  °F | °C
As of 4:51 AM on Friday 19 Dec 2014 (Local Time) from KVCT Reporting Station
Overcast Overcast  
Wind Chill: 61°   Ceiling: 700
Heat Index: 61°   Visibility: 10mi
Dew Point: 59°   Wind: 10mph
Humidity: 93%   Direction: 360°N
Pressure: 29.97"   Gusts: NA
Location:  28.93°N, 97.31°W
Report Text: KVCT 191051Z AUTO 36009KT 10SM BKN007 OVC011 16/15 A2997 RMK AO2 RAE26 SLP147 P0009 T01610150
Loading
Personal Weather Stations






























Interactive Weather Map New forecast layout! Learn more

10-Day Weather Forecast

Advertisements
Track Severe Weather on mobile